createdAt,value
2019-02-21T00:00:24.426Z,88
2019-02-21T00:05:21.451Z,88
2019-02-21T00:10:21.440Z,88
2019-02-21T00:15:21.462Z,88
2019-02-21T00:20:21.468Z,88
2019-02-21T00:25:21.481Z,88
2019-02-21T00:30:21.574Z,88
2019-02-21T00:35:21.476Z,88
2019-02-21T00:40:21.466Z,88
2019-02-21T00:45:21.474Z,88
2019-02-21T00:50:21.462Z,88
2019-02-21T00:55:21.468Z,88
2019-02-21T01:00:21.495Z,88
2019-02-21T01:05:21.475Z,88
2019-02-21T01:10:21.472Z,88
2019-02-21T01:15:21.473Z,88
2019-02-21T01:20:21.475Z,88
2019-02-21T01:25:21.477Z,88
2019-02-21T01:30:21.482Z,88
2019-02-21T01:35:21.473Z,88
2019-02-21T01:40:21.483Z,88
2019-02-21T01:45:21.531Z,88
2019-02-21T01:50:21.478Z,88
2019-02-21T01:55:21.487Z,88
2019-02-21T02:00:21.482Z,88
2019-02-21T02:05:21.486Z,88
2019-02-21T02:10:21.492Z,88
2019-02-21T02:15:21.528Z,88
2019-02-21T02:20:21.498Z,88
2019-02-21T02:25:21.501Z,88
2019-02-21T02:30:21.496Z,88
2019-02-21T02:35:21.501Z,88
2019-02-21T02:40:21.512Z,88
2019-02-21T02:45:21.538Z,88
2019-02-21T02:50:21.504Z,88
2019-02-21T02:55:21.502Z,88
2019-02-21T03:00:21.510Z,88
2019-02-21T03:05:21.498Z,88
2019-02-21T03:10:21.515Z,88
2019-02-21T03:15:21.498Z,88
2019-02-21T03:20:21.505Z,88
2019-02-21T03:25:21.508Z,88
2019-02-21T03:30:21.516Z,88
2019-02-21T03:35:21.509Z,88
2019-02-21T03:40:21.529Z,88
2019-02-21T03:45:21.569Z,88
2019-02-21T03:50:21.512Z,88
2019-02-21T03:55:21.520Z,88
2019-02-21T04:00:21.523Z,88
2019-02-21T04:05:21.519Z,88
2019-02-21T04:10:21.535Z,88
2019-02-21T04:15:21.530Z,88
2019-02-21T04:20:21.516Z,88
2019-02-21T04:25:21.560Z,88
2019-02-21T04:30:21.519Z,88
2019-02-21T04:35:21.557Z,88
2019-02-21T04:40:21.536Z,88
2019-02-21T04:45:21.554Z,88
2019-02-21T04:50:21.533Z,88
2019-02-21T04:55:21.531Z,88
2019-02-21T05:00:21.552Z,88
2019-02-21T05:05:21.535Z,88
2019-02-21T05:10:21.566Z,88
2019-02-21T05:15:21.539Z,88
2019-02-21T05:20:21.557Z,88
2019-02-21T05:25:21.563Z,88
2019-02-21T05:30:21.538Z,88
2019-02-21T05:35:21.570Z,88
2019-02-21T05:40:21.572Z,88
2019-02-21T05:45:21.601Z,88
2019-02-21T05:50:21.578Z,88
2019-02-21T05:55:21.555Z,88
2019-02-21T06:00:21.550Z,88
2019-02-21T06:05:21.552Z,88
2019-02-21T06:10:21.590Z,88
2019-02-21T06:15:21.571Z,88
2019-02-21T06:20:21.561Z,88
2019-02-21T06:25:21.600Z,88
2019-02-21T06:30:21.552Z,88
2019-02-21T06:35:21.554Z,88
2019-02-21T06:40:21.599Z,88
2019-02-21T06:45:21.557Z,88
2019-02-21T06:50:26.568Z,88
2019-02-21T06:55:21.578Z,88
2019-02-21T07:00:21.560Z,88
2019-02-21T07:05:21.577Z,88
2019-02-21T07:10:21.565Z,88
2019-02-21T07:15:21.536Z,88
2019-02-21T07:20:21.538Z,88
2019-02-21T07:25:21.578Z,88
2019-02-21T07:30:23.193Z,88
2019-02-21T07:35:21.584Z,88
2019-02-21T07:40:21.612Z,88
2019-02-21T07:45:21.582Z,88
2019-02-21T07:50:23.100Z,88
2019-02-21T07:55:21.575Z,88
2019-02-21T08:00:21.578Z,88
2019-02-21T08:05:23.565Z,88
2019-02-21T08:10:32.726Z,88
2019-02-21T08:15:21.619Z,88
2019-02-21T08:20:21.584Z,89
2019-02-21T08:25:21.583Z,89
2019-02-21T08:30:21.629Z,90
2019-02-21T08:35:21.589Z,90
2019-02-21T08:40:21.585Z,91
2019-02-21T08:45:21.644Z,91
2019-02-21T08:50:22.391Z,90
2019-02-21T08:55:21.606Z,90
2019-02-21T09:00:21.634Z,90
2019-02-21T09:05:21.604Z,90
2019-02-21T09:10:21.596Z,90
2019-02-21T09:15:21.640Z,90
2019-02-21T09:20:21.598Z,90
2019-02-21T09:25:21.604Z,90
2019-02-21T09:30:21.599Z,90
2019-02-21T09:35:21.615Z,90
2019-02-21T09:40:21.624Z,90
2019-02-21T09:45:21.611Z,91
2019-02-21T09:50:21.612Z,91
2019-02-21T09:55:21.611Z,91
2019-02-21T10:00:21.607Z,91
2019-02-21T10:05:21.670Z,91
2019-02-21T10:10:21.682Z,91
2019-02-21T10:15:21.615Z,91
2019-02-21T10:20:21.734Z,90
2019-02-21T10:25:23.038Z,90
2019-02-21T10:30:21.621Z,91
2019-02-21T10:35:21.629Z,91
2019-02-21T10:40:21.763Z,91
2019-02-21T10:45:21.638Z,91
2019-02-21T10:50:21.594Z,91
2019-02-21T10:55:21.605Z,91
2019-02-21T11:00:21.630Z,91
2019-02-21T11:05:21.609Z,91
2019-02-21T11:10:21.590Z,91
2019-02-21T11:15:21.624Z,91
2019-02-21T11:20:21.626Z,91
2019-02-21T11:25:21.642Z,91
2019-02-21T11:30:21.660Z,91
2019-02-21T11:35:21.637Z,91
2019-02-21T11:40:21.637Z,92
2019-02-21T11:45:21.640Z,90
2019-02-21T11:50:21.644Z,85
2019-02-21T11:55:21.643Z,79
2019-02-21T12:00:21.690Z,67
2019-02-21T12:05:30.310Z,67
2019-02-21T12:10:21.646Z,66
2019-02-21T12:15:21.645Z,65
2019-02-21T12:20:21.799Z,68
2019-02-21T12:25:21.646Z,69
2019-02-21T12:30:21.680Z,70
2019-02-21T12:35:28.988Z,70
2019-02-21T12:40:21.660Z,72
2019-02-21T12:45:21.705Z,78
2019-02-21T12:50:21.703Z,78
2019-02-21T12:55:27.521Z,80
2019-02-21T13:00:21.664Z,82
2019-02-21T13:05:21.664Z,86
2019-02-21T13:10:21.663Z,86
2019-02-21T13:15:21.659Z,87
2019-02-21T13:20:21.665Z,87
2019-02-21T13:25:21.671Z,89
2019-02-21T13:30:21.663Z,91
2019-02-21T13:35:21.683Z,91
2019-02-21T13:40:21.673Z,91
2019-02-21T13:45:21.665Z,91
2019-02-21T13:50:23.618Z,91
2019-02-21T13:55:21.674Z,91
2019-02-21T14:00:21.703Z,91
2019-02-21T14:05:21.685Z,91
2019-02-21T14:10:21.682Z,91
2019-02-21T14:15:21.680Z,91
2019-02-21T14:20:21.687Z,89
2019-02-21T14:25:21.690Z,87
2019-02-21T14:30:21.680Z,88
2019-02-21T14:35:21.727Z,89
2019-02-21T14:40:21.732Z,90
2019-02-21T14:45:21.664Z,91
2019-02-21T14:50:21.688Z,91
2019-02-21T14:55:21.685Z,91
2019-02-21T15:00:21.692Z,91
2019-02-21T15:05:21.710Z,91
2019-02-21T15:10:21.657Z,91
2019-02-21T15:15:22.232Z,91
2019-02-21T15:20:21.748Z,91
2019-02-21T15:25:21.692Z,91
2019-02-21T15:30:21.726Z,91
2019-02-21T15:35:21.696Z,91
2019-02-21T15:40:21.710Z,91
2019-02-21T15:45:23.263Z,91
2019-02-21T15:50:21.707Z,91
2019-02-21T15:55:21.706Z,91
2019-02-21T16:00:21.712Z,91
2019-02-21T16:05:21.707Z,91
2019-02-21T16:10:21.692Z,91
2019-02-21T16:15:21.708Z,91
2019-02-21T16:20:21.727Z,91
2019-02-21T16:25:21.725Z,91
2019-02-21T16:30:22.166Z,91
2019-02-21T16:35:21.705Z,91
2019-02-21T16:40:21.719Z,91
2019-02-21T16:45:21.815Z,90
2019-02-21T16:50:29.553Z,90
2019-02-21T16:55:21.719Z,90
2019-02-21T17:00:21.757Z,91
2019-02-21T17:05:21.727Z,91
2019-02-21T17:10:21.726Z,91
2019-02-21T17:15:21.770Z,91
2019-02-21T17:20:21.722Z,91
2019-02-21T17:25:21.738Z,91
2019-02-21T17:30:21.768Z,91
2019-02-21T17:35:21.733Z,91
2019-02-21T17:40:21.740Z,91
2019-02-21T17:45:21.739Z,91
2019-02-21T17:50:21.731Z,91
2019-02-21T17:55:21.735Z,91
2019-02-21T18:00:21.766Z,91
2019-02-21T18:05:21.741Z,91
2019-02-21T18:10:21.747Z,91
2019-02-21T18:15:21.737Z,91
2019-02-21T18:20:21.757Z,91
2019-02-21T18:25:21.750Z,91
2019-02-21T18:30:21.742Z,91
2019-02-21T18:35:21.719Z,91
2019-02-21T18:40:21.755Z,91
2019-02-21T18:45:21.800Z,91
2019-02-21T18:50:21.756Z,91
2019-02-21T18:55:21.767Z,91
2019-02-21T19:00:21.752Z,91
2019-02-21T19:05:21.752Z,91
2019-02-21T19:10:21.755Z,91
2019-02-21T19:15:21.807Z,91
2019-02-21T19:20:21.768Z,91
2019-02-21T19:25:21.758Z,91
2019-02-21T19:30:21.796Z,91
2019-02-21T19:35:21.764Z,91
2019-02-21T19:40:21.757Z,91
2019-02-21T19:45:21.835Z,91
2019-02-21T19:50:21.764Z,91
2019-02-21T19:55:21.774Z,91
2019-02-21T20:00:21.800Z,91
2019-02-21T20:05:21.790Z,91
2019-02-21T20:10:21.861Z,90
2019-02-21T20:15:21.795Z,90
2019-02-21T20:20:21.744Z,90
2019-02-21T20:25:21.756Z,90
2019-02-21T20:30:21.819Z,90
2019-02-21T20:35:21.772Z,90
2019-02-21T20:40:21.747Z,90
2019-02-21T20:45:21.782Z,90
2019-02-21T20:50:21.783Z,90
2019-02-21T20:55:21.790Z,90
2019-02-21T21:00:21.811Z,90
2019-02-21T21:05:21.802Z,90
2019-02-21T21:10:21.749Z,90
2019-02-21T21:15:21.830Z,90
2019-02-21T21:20:21.789Z,90
2019-02-21T21:25:21.792Z,90
2019-02-21T21:30:21.826Z,90
2019-02-21T21:35:21.794Z,90
2019-02-21T21:40:21.799Z,90
2019-02-21T21:45:21.842Z,90
2019-02-21T21:50:21.798Z,90
2019-02-21T21:55:21.808Z,89
2019-02-21T22:00:21.838Z,89
2019-02-21T22:05:21.802Z,89
2019-02-21T22:10:21.773Z,89
2019-02-21T22:15:21.811Z,89
2019-02-21T22:20:21.841Z,89
2019-02-21T22:25:21.774Z,89
2019-02-21T22:30:21.803Z,89
2019-02-21T22:35:21.814Z,89
2019-02-21T22:40:21.836Z,89
2019-02-21T22:45:21.825Z,89
2019-02-21T22:50:21.825Z,89
2019-02-21T22:55:21.817Z,89
2019-02-21T23:00:21.865Z,89
2019-02-21T23:05:21.788Z,89
2019-02-21T23:10:21.787Z,89
2019-02-21T23:15:21.879Z,89
2019-02-21T23:20:22.788Z,89
2019-02-21T23:25:21.786Z,89
2019-02-21T23:30:21.830Z,89
2019-02-21T23:35:21.809Z,89
2019-02-21T23:40:21.807Z,89
2019-02-21T23:45:21.873Z,90
2019-02-21T23:50:21.849Z,90
2019-02-21T23:55:21.803Z,90
